createdAt,value
2022-10-06T00:01:15.698Z,25.24
2022-10-06T00:03:42.090Z,25.68
2022-10-06T00:06:08.426Z,25.76
2022-10-06T00:08:34.807Z,25.72
2022-10-06T00:11:01.152Z,27.00
2022-10-06T00:13:27.471Z,25.79
2022-10-06T00:15:53.907Z,25.45
2022-10-06T00:18:20.294Z,25.04
2022-10-06T00:20:46.623Z,25.05
2022-10-06T00:23:12.988Z,24.95
2022-10-06T00:25:39.318Z,25.62
2022-10-06T00:28:05.704Z,25.35
2022-10-06T00:30:32.163Z,25.49
2022-10-06T00:32:58.497Z,25.46
2022-10-06T00:35:24.844Z,25.39
2022-10-06T00:37:51.215Z,25.50
2022-10-06T00:40:17.568Z,25.65
2022-10-06T00:42:43.898Z,26.22
2022-10-06T00:45:10.272Z,27.01
2022-10-06T00:47:36.624Z,25.86
2022-10-06T00:50:02.967Z,25.19
2022-10-06T00:52:29.327Z,25.66
2022-10-06T00:54:55.650Z,25.46
2022-10-06T00:57:21.998Z,25.02
2022-10-06T00:59:48.442Z,25.39
2022-10-06T01:02:14.877Z,25.60
2022-10-06T01:04:41.288Z,25.18
2022-10-06T01:07:07.672Z,25.37
2022-10-06T01:09:34.054Z,25.55
2022-10-06T01:12:00.405Z,25.61
2022-10-06T01:14:26.836Z,25.77
2022-10-06T01:16:53.192Z,25.89
2022-10-06T01:19:19.522Z,27.08
2022-10-06T01:21:45.899Z,26.03
2022-10-06T01:24:12.236Z,25.14
2022-10-06T01:26:38.571Z,25.42
2022-10-06T01:29:04.917Z,25.34
2022-10-06T01:31:31.333Z,25.38
2022-10-06T01:33:57.776Z,25.10
2022-10-06T01:36:24.144Z,25.16
2022-10-06T01:38:50.469Z,25.09
2022-10-06T01:41:16.868Z,25.64
2022-10-06T01:43:43.227Z,25.44
2022-10-06T01:46:09.606Z,25.43
2022-10-06T01:48:35.964Z,25.04
2022-10-06T01:51:02.315Z,27.15
2022-10-06T01:53:28.640Z,26.31
2022-10-06T01:55:54.980Z,25.72
2022-10-06T01:58:21.342Z,25.26
2022-10-06T02:00:47.676Z,25.12
2022-10-06T02:03:14.024Z,25.25
2022-10-06T02:05:40.455Z,25.33
2022-10-06T02:08:06.792Z,25.22
2022-10-06T02:10:33.144Z,25.21
2022-10-06T02:12:59.570Z,25.29
2022-10-06T02:15:25.907Z,25.12
2022-10-06T02:17:52.247Z,25.18
2022-10-06T02:20:18.715Z,25.60
2022-10-06T02:22:45.042Z,25.33
2022-10-06T02:25:11.376Z,27.31
2022-10-06T02:27:37.837Z,26.44
2022-10-06T02:30:04.189Z,25.39
2022-10-06T02:32:30.537Z,25.30
2022-10-06T02:34:56.896Z,25.21
2022-10-06T02:37:23.215Z,25.12
2022-10-06T02:39:49.565Z,25.32
2022-10-06T02:42:15.938Z,25.53
2022-10-06T02:44:42.274Z,25.33
2022-10-06T02:47:08.626Z,25.48
2022-10-06T02:49:37.014Z,25.37
2022-10-06T02:52:03.357Z,25.33
2022-10-06T02:54:29.712Z,25.70
2022-10-06T02:56:56.178Z,25.09
2022-10-06T02:59:24.046Z,26.93
2022-10-06T03:01:50.478Z,26.26
2022-10-06T03:04:16.890Z,25.72
2022-10-06T03:06:43.233Z,25.25
2022-10-06T03:09:09.566Z,25.22
2022-10-06T03:11:35.936Z,25.27
2022-10-06T03:14:02.276Z,25.14
2022-10-06T03:16:28.682Z,25.06
2022-10-06T03:18:55.106Z,25.53
2022-10-06T03:21:21.447Z,25.07
2022-10-06T03:23:47.787Z,25.43
2022-10-06T03:26:14.218Z,25.37
2022-10-06T03:28:40.602Z,25.68
2022-10-06T03:31:06.975Z,25.84
2022-10-06T03:33:33.346Z,26.24
2022-10-06T03:35:59.675Z,26.96
2022-10-06T03:38:26.360Z,25.82
2022-10-06T03:40:52.946Z,25.09
2022-10-06T03:43:19.289Z,25.04
2022-10-06T03:45:45.623Z,25.09
2022-10-06T03:48:11.998Z,25.37
2022-10-06T03:50:38.330Z,25.21
2022-10-06T03:53:04.649Z,25.61
2022-10-06T03:55:31.096Z,25.50
2022-10-06T03:57:57.445Z,25.51
2022-10-06T04:00:23.795Z,25.62
2022-10-06T04:02:50.169Z,25.21
2022-10-06T04:05:16.526Z,26.31
2022-10-06T04:07:42.862Z,26.60
2022-10-06T04:10:09.217Z,25.93
2022-10-06T04:12:35.554Z,25.55
2022-10-06T04:15:01.899Z,25.38
2022-10-06T04:17:28.265Z,25.19
2022-10-06T04:19:54.606Z,25.31
2022-10-06T04:22:20.944Z,25.33
2022-10-06T04:24:47.317Z,25.58
2022-10-06T04:27:13.671Z,25.39
2022-10-06T04:29:40.007Z,25.62
2022-10-06T04:32:06.410Z,25.67
2022-10-06T04:34:32.756Z,25.51
2022-10-06T04:36:59.104Z,27.28
2022-10-06T04:39:25.530Z,26.47
2022-10-06T04:41:51.871Z,25.79
2022-10-06T04:44:18.222Z,25.45
2022-10-06T04:46:45.284Z,25.52
2022-10-06T04:49:17.975Z,25.39
2022-10-06T04:51:46.188Z,25.77
2022-10-06T04:54:12.549Z,25.77
2022-10-06T04:56:38.908Z,25.78
2022-10-06T04:59:05.282Z,25.88
2022-10-06T05:01:31.670Z,25.91
2022-10-06T05:03:58.095Z,25.99
2022-10-06T05:06:24.579Z,27.45
2022-10-06T05:08:50.932Z,26.35
2022-10-06T05:11:20.300Z,26.08
2022-10-06T05:13:48.937Z,25.81
2022-10-06T05:16:15.341Z,25.63
2022-10-06T05:18:41.718Z,25.82
2022-10-06T05:21:08.090Z,25.93
2022-10-06T05:23:34.436Z,26.09
2022-10-06T05:26:00.802Z,25.98
2022-10-06T05:28:27.855Z,26.09
2022-10-06T05:30:54.597Z,26.09
2022-10-06T05:33:20.936Z,25.93
2022-10-06T05:35:47.370Z,27.67
2022-10-06T05:38:13.781Z,26.93
2022-10-06T05:40:40.115Z,26.32
2022-10-06T05:43:06.468Z,26.23
2022-10-06T05:45:32.854Z,26.00
2022-10-06T05:47:59.215Z,26.17
2022-10-06T05:50:25.591Z,25.97
2022-10-06T05:52:51.952Z,26.46
2022-10-06T05:55:18.288Z,26.38
2022-10-06T05:57:44.699Z,26.69
2022-10-06T06:00:11.037Z,27.05
2022-10-06T06:02:37.473Z,27.03
2022-10-06T06:05:03.931Z,28.71
2022-10-06T06:07:30.294Z,27.97
2022-10-06T06:09:56.656Z,27.54
2022-10-06T06:12:23.020Z,27.04
2022-10-06T06:14:49.367Z,27.07
2022-10-06T06:17:15.709Z,27.45
2022-10-06T06:19:42.087Z,27.36
2022-10-06T06:22:08.483Z,27.73
2022-10-06T06:24:34.822Z,27.53
2022-10-06T06:27:01.356Z,27.88
2022-10-06T06:29:27.707Z,27.63
2022-10-06T06:31:54.088Z,29.40
2022-10-06T06:34:20.535Z,28.79
2022-10-06T06:36:46.898Z,28.02
2022-10-06T06:39:13.270Z,27.64
2022-10-06T06:41:39.662Z,27.48
2022-10-06T06:44:06.037Z,27.83
2022-10-06T06:46:32.480Z,28.00
2022-10-06T06:48:59.026Z,28.04
2022-10-06T06:51:25.368Z,28.01
2022-10-06T06:53:51.740Z,28.15
2022-10-06T06:56:18.203Z,28.35
2022-10-06T06:58:44.576Z,30.11
2022-10-06T07:01:10.965Z,29.12
2022-10-06T07:03:57.720Z,28.54
2022-10-06T07:06:27.776Z,28.34
2022-10-06T07:08:54.651Z,28.59
2022-10-06T07:11:21.051Z,28.50
2022-10-06T07:13:47.402Z,28.67
2022-10-06T07:16:13.845Z,29.02
2022-10-06T07:18:40.258Z,28.96
2022-10-06T07:21:06.604Z,28.97
2022-10-06T07:23:32.974Z,29.87
2022-10-06T07:25:59.302Z,30.78
2022-10-06T07:28:25.712Z,29.47
2022-10-06T07:30:52.256Z,29.23
2022-10-06T07:33:18.581Z,28.98
2022-10-06T07:35:44.910Z,29.10
2022-10-06T07:38:11.255Z,29.20
2022-10-06T07:40:40.231Z,29.36
2022-10-06T07:43:12.820Z,29.50
2022-10-06T07:45:39.353Z,29.21
2022-10-06T07:48:05.968Z,28.94
2022-10-06T07:50:32.428Z,30.79
2022-10-06T07:52:58.868Z,30.46
2022-10-06T07:55:25.325Z,29.35
2022-10-06T07:57:51.730Z,29.20
2022-10-06T08:00:18.094Z,29.34
2022-10-06T08:02:44.502Z,29.29
2022-10-06T08:05:11.078Z,29.37
2022-10-06T08:07:37.427Z,29.37
2022-10-06T08:10:03.776Z,29.62
2022-10-06T08:12:30.248Z,29.49
2022-10-06T08:14:56.905Z,29.20
2022-10-06T08:17:23.628Z,31.38
2022-10-06T08:19:50.021Z,30.31
2022-10-06T08:22:16.465Z,29.49
2022-10-06T08:25:04.685Z,29.43
2022-10-06T08:27:29.271Z,29.40
2022-10-06T08:29:55.618Z,29.30
2022-10-06T08:32:21.947Z,29.56
2022-10-06T08:34:48.308Z,29.20
2022-10-06T08:37:19.734Z,29.42
2022-10-06T08:39:53.832Z,29.44
2022-10-06T08:42:20.285Z,29.82
2022-10-06T08:44:46.597Z,30.96
2022-10-06T08:47:12.913Z,29.69
2022-10-06T08:49:39.443Z,29.43
2022-10-06T08:52:05.816Z,29.25
2022-10-06T08:54:32.127Z,29.25
2022-10-06T08:56:58.469Z,29.48
2022-10-06T08:59:24.810Z,29.63
2022-10-06T09:01:51.238Z,29.59
2022-10-06T09:04:17.735Z,29.92
2022-10-06T09:06:44.111Z,29.90
2022-10-06T09:09:10.466Z,30.52
2022-10-06T09:11:36.847Z,31.39
2022-10-06T09:14:03.163Z,30.24
2022-10-06T09:16:29.641Z,29.72
2022-10-06T09:19:08.327Z,29.71
2022-10-06T09:21:35.281Z,29.74
2022-10-06T09:24:01.643Z,29.44
2022-10-06T09:26:28.012Z,29.30
2022-10-06T09:28:54.351Z,29.03
2022-10-06T09:31:20.789Z,28.94
2022-10-06T09:33:47.188Z,29.02
2022-10-06T09:36:13.551Z,29.62
2022-10-06T09:38:39.945Z,30.18
2022-10-06T09:41:06.313Z,29.06
2022-10-06T09:43:32.653Z,28.90
2022-10-06T09:45:59.649Z,28.52
2022-10-06T09:48:26.032Z,28.55
2022-10-06T09:50:52.342Z,28.55
2022-10-06T09:53:18.745Z,28.51
2022-10-06T09:55:45.104Z,28.82
2022-10-06T09:58:11.446Z,29.14
2022-10-06T10:00:37.873Z,28.87
2022-10-06T10:03:04.321Z,29.31
2022-10-06T10:05:30.681Z,30.20
2022-10-06T10:07:57.205Z,29.20
2022-10-06T10:10:23.600Z,28.94
2022-10-06T10:12:49.949Z,28.50
2022-10-06T10:15:16.325Z,28.64
2022-10-06T10:17:42.682Z,28.87
2022-10-06T10:20:09.027Z,28.78
2022-10-06T10:22:35.529Z,28.38
2022-10-06T10:25:01.888Z,28.62
2022-10-06T10:27:28.375Z,28.71
2022-10-06T10:29:55.132Z,29.29
2022-10-06T10:32:21.643Z,30.12
2022-10-06T10:34:48.085Z,29.21
2022-10-06T10:37:14.567Z,28.73
2022-10-06T10:39:41.052Z,29.01
2022-10-06T10:42:07.433Z,28.62
2022-10-06T10:44:33.819Z,28.62
2022-10-06T10:47:00.244Z,28.91
2022-10-06T10:49:26.650Z,28.70
2022-10-06T10:51:53.061Z,28.89
2022-10-06T10:54:19.442Z,28.99
2022-10-06T10:56:45.854Z,28.70
2022-10-06T10:59:12.269Z,30.81
2022-10-06T11:01:38.674Z,29.72
2022-10-06T11:04:05.064Z,29.17
2022-10-06T11:06:31.436Z,29.07
2022-10-06T11:08:57.773Z,28.73
2022-10-06T11:11:24.100Z,28.91
2022-10-06T11:13:50.498Z,28.88
2022-10-06T11:16:16.868Z,29.20
2022-10-06T11:18:43.270Z,28.95
2022-10-06T11:21:10.011Z,29.28
2022-10-06T11:23:36.477Z,29.06
2022-10-06T11:26:02.817Z,30.47
2022-10-06T11:28:29.384Z,30.01
2022-10-06T11:30:55.827Z,29.55
2022-10-06T11:33:22.200Z,28.86
2022-10-06T11:35:48.682Z,28.60
2022-10-06T11:38:15.110Z,28.83
2022-10-06T11:40:41.496Z,28.98
2022-10-06T11:43:07.891Z,29.34
2022-10-06T11:45:34.262Z,29.04
2022-10-06T11:48:00.636Z,29.13
2022-10-06T11:50:27.181Z,29.45
2022-10-06T11:52:53.582Z,29.02
2022-10-06T11:55:19.942Z,31.22
2022-10-06T11:57:46.341Z,30.17
2022-10-06T12:00:12.728Z,29.49
2022-10-06T12:02:39.215Z,29.28
2022-10-06T12:05:13.924Z,29.10
2022-10-06T12:07:52.089Z,29.16
2022-10-06T12:10:18.535Z,29.02
2022-10-06T12:13:01.924Z,28.97
2022-10-06T12:17:05.496Z,29.29
2022-10-06T12:18:17.620Z,29.16
2022-10-06T12:20:43.997Z,29.25
2022-10-06T12:23:10.364Z,30.12
2022-10-06T12:25:36.752Z,30.46
2022-10-06T12:28:03.210Z,29.67
2022-10-06T12:30:29.652Z,29.29
2022-10-06T12:32:56.052Z,28.95
2022-10-06T12:35:22.524Z,28.93
2022-10-06T12:37:53.773Z,29.30
2022-10-06T12:40:20.764Z,29.20
2022-10-06T12:42:47.180Z,29.19
2022-10-06T12:45:13.601Z,28.99
2022-10-06T12:47:39.934Z,29.19
2022-10-06T12:50:06.391Z,28.97
2022-10-06T12:52:32.736Z,30.24
2022-10-06T12:54:59.291Z,30.24
2022-10-06T12:57:25.975Z,29.59
2022-10-06T12:59:52.310Z,29.29
2022-10-06T13:02:18.708Z,29.09
2022-10-06T13:04:45.204Z,29.23
2022-10-06T13:07:11.585Z,29.10
2022-10-06T13:09:38.009Z,29.39
2022-10-06T13:12:04.485Z,29.21
2022-10-06T13:14:30.868Z,29.39
2022-10-06T13:16:59.757Z,29.18
2022-10-06T13:19:29.607Z,28.94
2022-10-06T13:21:55.977Z,30.62
2022-10-06T13:24:22.377Z,30.44
2022-10-06T13:26:48.751Z,29.71
2022-10-06T13:29:15.133Z,29.31
2022-10-06T13:31:41.588Z,28.99
2022-10-06T13:34:07.985Z,29.13
2022-10-06T13:36:34.390Z,29.25
2022-10-06T13:39:00.734Z,29.28
2022-10-06T13:41:27.150Z,29.14
2022-10-06T13:43:53.519Z,29.30
2022-10-06T13:46:19.970Z,29.60
2022-10-06T13:48:46.537Z,29.49
2022-10-06T13:51:12.914Z,30.63
2022-10-06T13:53:39.318Z,30.64
2022-10-06T13:56:05.698Z,29.65
2022-10-06T13:58:32.092Z,29.49
2022-10-06T14:00:58.438Z,29.20
2022-10-06T14:03:24.904Z,29.10
2022-10-06T14:05:51.307Z,29.08
2022-10-06T14:08:17.777Z,28.88
2022-10-06T14:10:44.135Z,28.68
2022-10-06T14:13:10.534Z,28.07
2022-10-06T14:15:36.929Z,28.60
2022-10-06T14:18:03.335Z,28.34
2022-10-06T14:20:29.725Z,29.92
2022-10-06T14:22:56.100Z,29.39
2022-10-06T14:25:22.609Z,28.61
2022-10-06T14:27:49.007Z,27.87
2022-10-06T14:30:15.347Z,27.61
2022-10-06T14:32:41.723Z,27.75
2022-10-06T14:35:08.105Z,27.71
2022-10-06T14:37:34.456Z,27.41
2022-10-06T14:40:01.473Z,27.39
2022-10-06T14:42:28.259Z,27.74
2022-10-06T14:44:54.623Z,27.65
2022-10-06T14:47:21.010Z,27.49
2022-10-06T14:49:47.375Z,28.80
2022-10-06T14:52:13.721Z,28.64
2022-10-06T14:54:40.099Z,27.50
2022-10-06T14:57:06.455Z,27.05
2022-10-06T14:59:32.809Z,26.84
2022-10-06T15:01:59.600Z,26.86
2022-10-06T15:04:26.016Z,26.95
2022-10-06T15:06:52.391Z,27.40
2022-10-06T15:09:18.874Z,27.57
2022-10-06T15:11:45.317Z,27.44
2022-10-06T15:14:11.728Z,27.44
2022-10-06T15:16:38.192Z,27.09
2022-10-06T15:19:04.597Z,28.28
2022-10-06T15:21:30.959Z,27.30
2022-10-06T15:23:57.436Z,26.98
2022-10-06T15:26:23.775Z,26.78
2022-10-06T15:28:50.228Z,26.53
2022-10-06T15:31:16.798Z,26.27
2022-10-06T15:33:43.193Z,26.73
2022-10-06T15:36:09.614Z,27.15
2022-10-06T15:38:36.007Z,27.28
2022-10-06T15:41:02.385Z,27.24
2022-10-06T15:43:28.722Z,27.10
2022-10-06T15:45:55.296Z,27.09
2022-10-06T15:48:21.652Z,28.36
2022-10-06T15:50:48.005Z,28.35
2022-10-06T15:53:14.399Z,27.64
2022-10-06T15:55:40.754Z,27.13
2022-10-06T15:58:07.134Z,27.37
2022-10-06T16:00:33.486Z,27.28
2022-10-06T16:02:59.877Z,27.21
2022-10-06T16:05:26.279Z,27.57
2022-10-06T16:07:52.784Z,27.52
2022-10-06T16:10:19.153Z,27.46
2022-10-06T16:12:45.526Z,27.54
2022-10-06T16:15:11.990Z,27.36
2022-10-06T16:17:38.358Z,29.08
2022-10-06T16:20:04.713Z,28.43
2022-10-06T16:22:31.146Z,27.56
2022-10-06T16:24:57.508Z,27.59
2022-10-06T16:27:23.868Z,27.39
2022-10-06T16:29:50.338Z,27.53
2022-10-06T16:32:16.658Z,27.61
2022-10-06T16:34:43.016Z,27.33
2022-10-06T16:37:09.540Z,27.19
2022-10-06T16:39:35.910Z,27.56
2022-10-06T16:42:02.236Z,27.36
2022-10-06T16:44:28.743Z,26.89
2022-10-06T16:46:55.184Z,29.12
2022-10-06T16:49:23.923Z,28.61
2022-10-06T16:51:50.294Z,27.58
2022-10-06T16:54:16.629Z,27.52
2022-10-06T16:56:42.969Z,27.40
2022-10-06T16:59:09.346Z,27.30
2022-10-06T17:01:35.673Z,27.12
2022-10-06T17:04:02.040Z,27.14
2022-10-06T17:06:28.564Z,27.29
2022-10-06T17:08:54.909Z,27.37
2022-10-06T17:11:21.253Z,27.11
2022-10-06T17:13:47.705Z,27.01
2022-10-06T17:16:14.134Z,28.76
2022-10-06T17:18:40.534Z,28.08
2022-10-06T17:21:25.942Z,27.50
2022-10-06T17:23:53.234Z,27.39
2022-10-06T17:26:19.647Z,27.23
2022-10-06T17:28:46.032Z,27.35
2022-10-06T17:31:12.437Z,26.95
2022-10-06T17:33:38.857Z,27.05
2022-10-06T17:36:05.202Z,27.29
2022-10-06T17:38:31.562Z,27.60
2022-10-06T17:40:57.922Z,27.67
2022-10-06T17:43:24.251Z,27.17
2022-10-06T17:45:50.672Z,29.04
2022-10-06T17:48:17.174Z,28.12
2022-10-06T17:50:43.494Z,27.51
2022-10-06T17:53:09.834Z,27.52
2022-10-06T17:55:36.224Z,27.22
2022-10-06T17:58:02.551Z,27.17
2022-10-06T18:00:28.882Z,27.63
2022-10-06T18:02:55.236Z,27.55
2022-10-06T18:05:21.580Z,27.28
2022-10-06T18:07:47.921Z,27.59
2022-10-06T18:10:14.320Z,27.60
2022-10-06T18:12:40.894Z,27.33
2022-10-06T18:15:07.347Z,27.13
2022-10-06T18:17:33.715Z,28.82
2022-10-06T18:20:00.060Z,28.42
2022-10-06T18:22:26.409Z,27.24
2022-10-06T18:24:56.132Z,27.29
2022-10-06T18:27:25.488Z,27.10
2022-10-06T18:29:51.846Z,26.67
2022-10-06T18:37:55.730Z,27.23
2022-10-06T18:40:22.889Z,27.36
2022-10-06T18:42:49.261Z,26.93
2022-10-06T18:45:15.694Z,27.09
2022-10-06T18:47:42.304Z,27.22
2022-10-06T18:50:08.970Z,28.36
2022-10-06T18:52:35.347Z,27.45
2022-10-06T18:55:01.710Z,27.24
2022-10-06T18:57:28.143Z,27.03
2022-10-06T18:59:54.533Z,26.73
2022-10-06T19:02:20.911Z,26.99
2022-10-06T19:04:47.335Z,26.96
2022-10-06T19:07:13.696Z,27.14
2022-10-06T19:09:45.930Z,26.86
2022-10-06T19:12:13.139Z,26.83
2022-10-06T19:14:39.492Z,27.39
2022-10-06T19:17:05.842Z,27.14
2022-10-06T19:19:32.252Z,26.96
2022-10-06T19:21:58.608Z,28.59
2022-10-06T19:24:24.940Z,28.16
2022-10-06T19:26:51.326Z,27.26
2022-10-06T19:29:17.663Z,27.25
2022-10-06T19:31:44.006Z,26.67
2022-10-06T19:34:10.511Z,26.73
2022-10-06T19:36:36.857Z,26.83
2022-10-06T19:39:03.191Z,26.84
2022-10-06T19:41:29.640Z,27.07
2022-10-06T19:43:55.992Z,26.83
2022-10-06T19:46:22.383Z,26.85
2022-10-06T19:48:48.888Z,26.93
2022-10-06T19:51:15.224Z,27.25
2022-10-06T19:53:41.562Z,27.45
2022-10-06T19:56:07.953Z,27.37
2022-10-06T19:58:34.295Z,28.46
2022-10-06T20:01:00.680Z,27.47
2022-10-06T20:03:27.157Z,27.34
2022-10-06T20:05:53.489Z,26.74
2022-10-06T20:08:19.858Z,26.72
2022-10-06T20:10:46.243Z,26.53
2022-10-06T20:13:12.592Z,26.89
2022-10-06T20:15:38.944Z,26.74
2022-10-06T20:18:05.308Z,26.91
2022-10-06T20:20:31.675Z,26.79
2022-10-06T20:22:58.011Z,26.84
2022-10-06T20:25:24.381Z,26.91
2022-10-06T20:27:50.724Z,27.11
2022-10-06T20:30:17.055Z,27.41
2022-10-06T20:32:43.499Z,27.92
2022-10-06T20:35:09.838Z,27.13
2022-10-06T20:37:36.195Z,26.95
2022-10-06T20:40:02.575Z,26.88
2022-10-06T20:42:28.914Z,26.76
2022-10-06T20:44:55.248Z,26.64
2022-10-06T20:47:21.721Z,26.48
2022-10-06T20:49:48.375Z,26.85
2022-10-06T20:52:14.912Z,27.12
2022-10-06T20:54:41.402Z,27.03
2022-10-06T20:57:07.745Z,27.13
2022-10-06T20:59:34.078Z,27.36
2022-10-06T21:02:00.543Z,27.07
2022-10-06T21:04:26.925Z,26.42
2022-10-06T21:06:53.258Z,28.28
2022-10-06T21:09:19.703Z,27.54
2022-10-06T21:11:46.026Z,26.92
2022-10-06T21:14:12.389Z,26.54
2022-10-06T21:16:38.741Z,26.75
2022-10-06T21:19:05.073Z,26.73
2022-10-06T21:21:31.400Z,26.91
2022-10-06T21:23:57.861Z,27.00
2022-10-06T21:26:24.194Z,26.94
2022-10-06T21:28:50.525Z,27.23
2022-10-06T21:31:16.920Z,26.73
2022-10-06T21:33:43.301Z,26.71
2022-10-06T21:36:09.630Z,26.87
2022-10-06T21:38:36.064Z,27.72
2022-10-06T21:41:02.398Z,27.80
2022-10-06T21:43:28.721Z,27.11
2022-10-06T21:46:17.173Z,26.46
2022-10-06T21:48:41.641Z,26.31
2022-10-06T21:51:08.153Z,26.68
2022-10-06T21:53:34.481Z,26.68
2022-10-06T21:56:00.818Z,26.50
2022-10-06T21:58:27.357Z,26.98
2022-10-06T22:00:57.365Z,26.55
2022-10-06T22:03:24.525Z,26.91
2022-10-06T22:05:51.017Z,26.93
2022-10-06T22:08:17.341Z,26.77
2022-10-06T22:10:43.694Z,27.19
2022-10-06T22:13:10.221Z,27.59
2022-10-06T22:15:36.645Z,28.05
2022-10-06T22:18:03.044Z,26.86
2022-10-06T22:20:30.438Z,26.64
2022-10-06T22:22:58.490Z,26.83
2022-10-06T22:25:27.683Z,26.58
2022-10-06T22:27:54.153Z,26.41
2022-10-06T22:30:20.482Z,26.70
2022-10-06T22:32:46.813Z,27.17
2022-10-06T22:35:13.263Z,27.09
2022-10-06T22:37:39.589Z,27.16
2022-10-06T22:40:07.727Z,27.17
2022-10-06T22:42:34.380Z,26.98
2022-10-06T22:45:00.711Z,27.01
2022-10-06T22:47:27.041Z,27.64
2022-10-06T22:49:53.512Z,27.95
2022-10-06T22:52:19.856Z,26.93
2022-10-06T22:54:46.181Z,26.90
2022-10-06T22:57:12.950Z,26.67
2022-10-06T22:59:39.269Z,26.48
2022-10-06T23:02:05.633Z,26.40
2022-10-06T23:04:32.110Z,26.83
2022-10-06T23:06:58.441Z,26.33
2022-10-06T23:09:24.814Z,26.54
2022-10-06T23:11:51.304Z,26.69
2022-10-06T23:14:17.628Z,26.77
2022-10-06T23:16:44.033Z,27.00
2022-10-06T23:19:10.950Z,26.14
2022-10-06T23:21:37.286Z,27.85
2022-10-06T23:24:03.678Z,27.79
2022-10-06T23:26:30.192Z,26.64
2022-10-06T23:28:56.527Z,26.78
2022-10-06T23:31:22.942Z,26.69
2022-10-06T23:33:49.524Z,26.79
2022-10-06T23:36:15.858Z,26.46
2022-10-06T23:38:42.193Z,26.33
2022-10-06T23:41:09.565Z,26.84
2022-10-06T23:43:35.915Z,26.42
2022-10-06T23:46:02.332Z,26.77
2022-10-06T23:48:28.920Z,26.91
2022-10-06T23:50:55.265Z,26.57
2022-10-06T23:53:21.590Z,26.11
2022-10-06T23:55:48.106Z,27.92
2022-10-06T23:58:14.434Z,27.34
